VIR301 VIDP-EGLL
Flight info
| Callsign | VIR301 |
|---|---|
| Flight time | N/A |
| Altitude | 36000 |
| Route | SURAM6G SURAM G333 MERUN L750 RANAH B449 MAMED B450 BIBIM A909 TUNEK/N0488F380 A909 RODAR M11 ERLEV T923 SUBUT T916 MATAL M11 REBLO UM11 CRM UL746 ODERO DCT OPT DCT IRLOX DCT EMPOS DCT NEPOT DCT BEGLA/N0486F400 DCT DEXIT DCT INBED DCT BOMBI DCT BUB L608 LOGAN |
| Aircraft | B789/H-SDE1E2E3FGHIJ2J3J4J5M1RWXY/LB1D1 |
Departure
| Time | 2026-04-28 11:33 |
|---|---|
| Airport | Indira Gandhi International Airport (VIDP) |
Arrival
| Time | N/A |
|---|---|
| Airport | London Heathrow Airport (EGLL) |
| Time | Latitude | Longitude | Altitude | Speed | Heading |
|---|---|---|---|---|---|
| 2026-04-28 11:21 | 28.55337 | 77.07928 | 756 ft | 0 kts | 328° |
| 2026-04-28 11:21 | 28.55335 | 77.07930 | 752 ft | 3 kts | 328° |
| 2026-04-28 11:22 | 28.55314 | 77.07943 | 751 ft | 4 kts | 314° |
| 2026-04-28 11:22 | 28.55306 | 77.07959 | 751 ft | 4 kts | 281° |
| 2026-04-28 11:22 | 28.55308 | 77.07984 | 755 ft | 4 kts | 243° |
| 2026-04-28 11:22 | 28.55319 | 77.08006 | 756 ft | 1 kts | 240° |
| 2026-04-28 11:23 | 28.55320 | 77.08006 | 756 ft | 0 kts | 240° |
| 2026-04-28 11:24 | 28.55316 | 77.08000 | 756 ft | 2 kts | 240° |
| 2026-04-28 11:24 | 28.55305 | 77.07978 | 756 ft | 4 kts | 240° |
| 2026-04-28 11:25 | 28.55286 | 77.07939 | 752 ft | 7 kts | 240° |
| 2026-04-28 11:25 | 28.55258 | 77.07886 | 751 ft | 9 kts | 240° |
| 2026-04-28 11:25 | 28.55229 | 77.07821 | 756 ft | 6 kts | 262° |
| 2026-04-28 11:25 | 28.55243 | 77.07779 | 751 ft | 7 kts | 299° |
| 2026-04-28 11:26 | 28.55272 | 77.07721 | 755 ft | 10 kts | 299° |
| 2026-04-28 11:26 | 28.55282 | 77.07669 | 752 ft | 1 kts | 239° |
| 2026-04-28 11:26 | 28.55278 | 77.07666 | 751 ft | 1 kts | 216° |
| 2026-04-28 11:26 | 28.55259 | 77.07658 | 754 ft | 6 kts | 198° |
| 2026-04-28 11:27 | 28.55201 | 77.07638 | 752 ft | 11 kts | 196° |
| 2026-04-28 11:27 | 28.55108 | 77.07608 | 753 ft | 16 kts | 195° |
| 2026-04-28 11:27 | 28.55023 | 77.07581 | 757 ft | 0 kts | 195° |
| 2026-04-28 11:27 | 28.55019 | 77.07580 | 757 ft | 3 kts | 195° |
| 2026-04-28 11:28 | 28.54983 | 77.07569 | 753 ft | 8 kts | 195° |
| 2026-04-28 11:28 | 28.54908 | 77.07546 | 754 ft | 13 kts | 195° |
| 2026-04-28 11:28 | 28.54849 | 77.07535 | 756 ft | 1 kts | 156° |
| 2026-04-28 11:28 | 28.54845 | 77.07539 | 758 ft | 0 kts | 134° |
| 2026-04-28 11:29 | 28.54844 | 77.07543 | 756 ft | 1 kts | 111° |
| 2026-04-28 11:29 | 28.54844 | 77.07550 | 758 ft | 0 kts | 92° |
| 2026-04-28 11:30 | 28.54844 | 77.07583 | 757 ft | 12 kts | 91° |
| 2026-04-28 11:31 | 28.54836 | 77.07636 | 757 ft | 0 kts | 104° |
| 2026-04-28 11:32 | 28.54792 | 77.07837 | 755 ft | 63 kts | 104° |
| 2026-04-28 11:32 | 28.54629 | 77.08609 | 755 ft | 135 kts | 103° |
| 2026-04-28 11:33 | 28.54356 | 77.09890 | 763 ft | 196 kts | 103° |
| 2026-04-28 11:33 | 28.53978 | 77.11461 | 1407 ft | 211 kts | 105° |
| 2026-04-28 11:33 | 28.53235 | 77.12980 | 1898 ft | 233 kts | 140° |
| 2026-04-28 11:33 | 28.51725 | 77.13735 | 2411 ft | 255 kts | 175° |
| 2026-04-28 11:34 | 28.49877 | 77.13533 | 2839 ft | 278 kts | 192° |
| 2026-04-28 11:34 | 28.47992 | 77.12993 | 3768 ft | 281 kts | 195° |
| 2026-04-28 11:34 | 28.46078 | 77.12448 | 4671 ft | 285 kts | 193° |
| 2026-04-28 11:34 | 28.44125 | 77.12027 | 5673 ft | 286 kts | 192° |
| 2026-04-28 11:35 | 28.42163 | 77.11631 | 6691 ft | 287 kts | 193° |
| 2026-04-28 11:35 | 28.40175 | 77.11195 | 7222 ft | 295 kts | 193° |
| 2026-04-28 11:35 | 28.38161 | 77.10737 | 7168 ft | 291 kts | 193° |
| 2026-04-28 11:35 | 28.36202 | 77.10295 | 7154 ft | 284 kts | 196° |
| 2026-04-28 11:36 | 28.34466 | 77.09375 | 7182 ft | 279 kts | 219° |
| 2026-04-28 11:36 | 28.33184 | 77.07752 | 7194 ft | 278 kts | 242° |
| 2026-04-28 11:36 | 28.32602 | 77.05668 | 7820 ft | 276 kts | 264° |
| 2026-04-28 11:36 | 28.32745 | 77.03504 | 8754 ft | 280 kts | 285° |
| 2026-04-28 11:37 | 28.33247 | 77.01345 | 9569 ft | 285 kts | 282° |
| 2026-04-28 11:37 | 28.33717 | 76.99152 | 10454 ft | 289 kts | 283° |
| 2026-04-28 11:37 | 28.34239 | 76.96844 | 10758 ft | 315 kts | 284° |
| 2026-04-28 11:37 | 28.34819 | 76.94340 | 10962 ft | 341 kts | 284° |
| 2026-04-28 11:38 | 28.35435 | 76.91646 | 11331 ft | 358 kts | 284° |
| 2026-04-28 11:38 | 28.36052 | 76.88905 | 12210 ft | 361 kts | 284° |
| 2026-04-28 11:38 | 28.36678 | 76.86140 | 13079 ft | 362 kts | 284° |
| 2026-04-28 11:38 | 28.37327 | 76.83364 | 13901 ft | 366 kts | 287° |
| 2026-04-28 11:39 | 28.38373 | 76.80703 | 14634 ft | 371 kts | 294° |
| 2026-04-28 11:39 | 28.39426 | 76.78025 | 15477 ft | 373 kts | 292° |
| 2026-04-28 11:39 | 28.40452 | 76.75303 | 16242 ft | 376 kts | 292° |
| 2026-04-28 11:39 | 28.41521 | 76.72579 | 16983 ft | 379 kts | 293° |
| 2026-04-28 11:40 | 28.42621 | 76.69842 | 17696 ft | 383 kts | 293° |
| 2026-04-28 11:40 | 28.43703 | 76.67102 | 18377 ft | 385 kts | 292° |
| 2026-04-28 11:40 | 28.44791 | 76.64308 | 19052 ft | 389 kts | 292° |
| 2026-04-28 11:40 | 28.45895 | 76.61486 | 19670 ft | 393 kts | 292° |
| 2026-04-28 11:41 | 28.47020 | 76.58633 | 20310 ft | 396 kts | 292° |
| 2026-04-28 11:41 | 28.48150 | 76.55761 | 20895 ft | 400 kts | 292° |
| 2026-04-28 11:41 | 28.49285 | 76.52857 | 21452 ft | 404 kts | 292° |
| 2026-04-28 11:41 | 28.50428 | 76.49933 | 22002 ft | 407 kts | 292° |
| 2026-04-28 11:42 | 28.51582 | 76.46983 | 22525 ft | 410 kts | 292° |
| 2026-04-28 11:42 | 28.52750 | 76.44013 | 23017 ft | 413 kts | 293° |
| 2026-04-28 11:42 | 28.53958 | 76.41021 | 23522 ft | 416 kts | 293° |
| 2026-04-28 11:42 | 28.55176 | 76.38024 | 23995 ft | 419 kts | 293° |
| 2026-04-28 11:43 | 28.56390 | 76.34989 | 24451 ft | 422 kts | 293° |
| 2026-04-28 11:43 | 28.57606 | 76.31931 | 24865 ft | 426 kts | 293° |
| 2026-04-28 11:43 | 28.58837 | 76.28851 | 25271 ft | 430 kts | 293° |
| 2026-04-28 11:43 | 28.60086 | 76.25742 | 25676 ft | 433 kts | 293° |
| 2026-04-28 11:44 | 28.61340 | 76.22606 | 26026 ft | 437 kts | 293° |
| 2026-04-28 11:44 | 28.62598 | 76.19444 | 26420 ft | 440 kts | 293° |
| 2026-04-28 11:44 | 28.63866 | 76.16263 | 26775 ft | 444 kts | 293° |
| 2026-04-28 11:44 | 28.65148 | 76.13048 | 27140 ft | 447 kts | 293° |
| 2026-04-28 11:45 | 28.66437 | 76.09814 | 27457 ft | 450 kts | 293° |
| 2026-04-28 11:45 | 28.67733 | 76.06554 | 27790 ft | 454 kts | 293° |
| 2026-04-28 11:45 | 28.69039 | 76.03267 | 28113 ft | 457 kts | 293° |
| 2026-04-28 11:45 | 28.70334 | 76.00007 | 28441 ft | 460 kts | 293° |
| 2026-04-28 11:46 | 28.71656 | 75.96675 | 28762 ft | 462 kts | 292° |
| 2026-04-28 11:46 | 28.72981 | 75.93332 | 29101 ft | 464 kts | 292° |
| 2026-04-28 11:46 | 28.74062 | 75.89870 | 29365 ft | 464 kts | 282° |
| 2026-04-28 11:46 | 28.74576 | 75.86241 | 29649 ft | 465 kts | 272° |
| 2026-04-28 11:47 | 28.74510 | 75.82557 | 29898 ft | 467 kts | 263° |
| 2026-04-28 11:47 | 28.74194 | 75.78862 | 30135 ft | 470 kts | 264° |
| 2026-04-28 11:47 | 28.73873 | 75.75152 | 30416 ft | 472 kts | 264° |
| 2026-04-28 11:47 | 28.73541 | 75.71417 | 30714 ft | 473 kts | 264° |
| 2026-04-28 11:48 | 28.73207 | 75.67636 | 30998 ft | 474 kts | 264° |
| 2026-04-28 11:48 | 28.72881 | 75.63889 | 31261 ft | 475 kts | 264° |
| 2026-04-28 11:48 | 28.72551 | 75.60140 | 31535 ft | 477 kts | 264° |
| 2026-04-28 11:48 | 28.72216 | 75.56379 | 31812 ft | 477 kts | 264° |
| 2026-04-28 11:49 | 28.71880 | 75.52610 | 32090 ft | 478 kts | 264° |
| 2026-04-28 11:49 | 28.71545 | 75.48838 | 32332 ft | 479 kts | 264° |
| 2026-04-28 11:49 | 28.71209 | 75.45070 | 32684 ft | 477 kts | 264° |
| 2026-04-28 11:49 | 28.70872 | 75.41314 | 33038 ft | 476 kts | 264° |
| 2026-04-28 11:50 | 28.70535 | 75.37572 | 33381 ft | 474 kts | 264° |
| 2026-04-28 11:50 | 28.70312 | 75.35107 | 33626 ft | 472 kts | 264° |
| 2026-04-28 11:50 | 28.69977 | 75.31391 | 33972 ft | 471 kts | 264° |
| 2026-04-28 11:50 | 28.69532 | 75.26493 | 34431 ft | 468 kts | 264° |
| 2026-04-28 11:51 | 28.69196 | 75.22816 | 34740 ft | 467 kts | 264° |
| 2026-04-28 11:51 | 28.68860 | 75.19136 | 35005 ft | 466 kts | 264° |
| 2026-04-28 11:51 | 28.68524 | 75.15463 | 35277 ft | 466 kts | 264° |
| 2026-04-28 11:51 | 28.68188 | 75.11800 | 35499 ft | 466 kts | 264° |
| 2026-04-28 11:52 | 28.67958 | 75.09315 | 35661 ft | 466 kts | 264° |
| 2026-04-28 11:52 | 28.67623 | 75.05690 | 35858 ft | 466 kts | 265° |
| 2026-04-28 11:52 | 28.67283 | 75.02020 | 36165 ft | 464 kts | 265° |
| 2026-04-28 11:52 | 28.66944 | 74.98374 | 36464 ft | 462 kts | 265° |
| 2026-04-28 11:53 | 28.66605 | 74.94730 | 36685 ft | 462 kts | 265° |
| 2026-04-28 11:53 | 28.66265 | 74.91100 | 36998 ft | 459 kts | 265° |
| 2026-04-28 11:53 | 28.65928 | 74.87504 | 37337 ft | 456 kts | 265° |
| 2026-04-28 11:53 | 28.65592 | 74.83926 | 37649 ft | 452 kts | 265° |
| 2026-04-28 11:54 | 28.65253 | 74.80329 | 37923 ft | 450 kts | 266° |
| 2026-04-28 11:54 | 28.64918 | 74.76784 | 38110 ft | 450 kts | 266° |
| 2026-04-28 11:54 | 28.64583 | 74.73249 | 38278 ft | 449 kts | 266° |
| 2026-04-28 11:54 | 28.64247 | 74.69709 | 38450 ft | 449 kts | 266° |
| 2026-04-28 11:55 | 28.63909 | 74.66174 | 38637 ft | 449 kts | 266° |
| 2026-04-28 11:55 | 28.63576 | 74.62688 | 38794 ft | 448 kts | 266° |
| 2026-04-28 11:55 | 28.63233 | 74.59112 | 38956 ft | 448 kts | 266° |
| 2026-04-28 11:55 | 28.62898 | 74.55630 | 39126 ft | 448 kts | 266° |
| 2026-04-28 11:56 | 28.62558 | 74.52101 | 39256 ft | 448 kts | 267° |
| 2026-04-28 11:56 | 28.62218 | 74.48577 | 39392 ft | 448 kts | 267° |
| 2026-04-28 11:56 | 28.61877 | 74.45059 | 39564 ft | 447 kts | 267° |
| 2026-04-28 11:56 | 28.61533 | 74.41535 | 39698 ft | 447 kts | 267° |
| 2026-04-28 11:57 | 28.60845 | 74.34470 | 39712 ft | 449 kts | 267° |
| 2026-04-28 11:57 | 28.60149 | 74.27400 | 39693 ft | 444 kts | 267° |
| 2026-04-28 11:58 | 28.59463 | 74.20425 | 39697 ft | 444 kts | 267° |
| 2026-04-28 11:58 | 28.58770 | 74.13450 | 39698 ft | 444 kts | 267° |
| 2026-04-28 11:59 | 28.58074 | 74.06459 | 39698 ft | 443 kts | 267° |
| 2026-04-28 11:59 | 28.57379 | 73.99528 | 39695 ft | 443 kts | 267° |
| 2026-04-28 12:00 | 28.56677 | 73.92561 | 39692 ft | 443 kts | 267° |
| 2026-04-28 12:00 | 28.55972 | 73.85604 | 39687 ft | 443 kts | 267° |
| 2026-04-28 12:01 | 28.55274 | 73.78608 | 39665 ft | 444 kts | 270° |
| 2026-04-28 12:01 | 28.54990 | 73.71593 | 39657 ft | 441 kts | 270° |
| 2026-04-28 12:02 | 28.54678 | 73.64671 | 39659 ft | 440 kts | 271° |
| 2026-04-28 12:02 | 28.54397 | 73.57717 | 39660 ft | 440 kts | 270° |